sensor_id;sensor_type;location;lat;lon;timestamp;P1;durP1;ratioP1;P2;durP2;ratioP2
21472;SDS011;10898;48.072;11.682;2023-05-20T00:00:51;11.23;;;6.68;;
21472;SDS011;10898;48.072;11.682;2023-05-20T00:02:54;8.35;;;6.78;;
21472;SDS011;10898;48.072;11.682;2023-05-20T00:04:56;7.90;;;7.20;;
21472;SDS011;10898;48.072;11.682;2023-05-20T00:06:58;9.23;;;6.32;;
21472;SDS011;10898;48.072;11.682;2023-05-20T00:09:00;7.57;;;6.50;;
21472;SDS011;10898;48.072;11.682;2023-05-20T00:11:02;7.03;;;6.32;;
21472;SDS011;10898;48.072;11.682;2023-05-20T00:13:04;8.18;;;6.90;;
21472;SDS011;10898;48.072;11.682;2023-05-20T00:15:06;7.47;;;6.78;;
21472;SDS011;10898;48.072;11.682;2023-05-20T00:17:09;7.13;;;6.53;;
21472;SDS011;10898;48.072;11.682;2023-05-20T00:19:11;7.57;;;6.87;;
21472;SDS011;10898;48.072;11.682;2023-05-20T00:21:13;8.23;;;7.05;;
21472;SDS011;10898;48.072;11.682;2023-05-20T00:23:15;8.63;;;7.00;;
21472;SDS011;10898;48.072;11.682;2023-05-20T00:25:17;6.90;;;6.30;;
21472;SDS011;10898;48.072;11.682;2023-05-20T00:27:19;6.90;;;6.22;;
21472;SDS011;10898;48.072;11.682;2023-05-20T00:29:23;7.07;;;6.38;;
21472;SDS011;10898;48.072;11.682;2023-05-20T00:31:25;8.43;;;6.88;;
21472;SDS011;10898;48.072;11.682;2023-05-20T00:33:27;8.18;;;7.38;;
21472;SDS011;10898;48.072;11.682;2023-05-20T00:35:29;7.70;;;6.80;;
21472;SDS011;10898;48.072;11.682;2023-05-20T00:37:31;7.87;;;7.17;;
21472;SDS011;10898;48.072;11.682;2023-05-20T00:39:33;7.57;;;6.65;;
21472;SDS011;10898;48.072;11.682;2023-05-20T00:41:35;7.75;;;6.95;;
21472;SDS011;10898;48.072;11.682;2023-05-20T00:43:37;7.80;;;6.43;;
21472;SDS011;10898;48.072;11.682;2023-05-20T00:45:39;8.57;;;6.57;;
21472;SDS011;10898;48.072;11.682;2023-05-20T00:47:41;7.47;;;6.40;;
21472;SDS011;10898;48.072;11.682;2023-05-20T00:49:44;8.57;;;7.68;;
21472;SDS011;10898;48.072;11.682;2023-05-20T00:51:50;9.18;;;7.60;;
21472;SDS011;10898;48.072;11.682;2023-05-20T00:53:52;7.88;;;7.07;;
21472;SDS011;10898;48.072;11.682;2023-05-20T00:55:55;8.52;;;7.03;;
21472;SDS011;10898;48.072;11.682;2023-05-20T00:57:57;7.35;;;6.57;;
21472;SDS011;10898;48.072;11.682;2023-05-20T00:59:59;7.78;;;6.90;;
21472;SDS011;10898;48.072;11.682;2023-05-20T01:02:01;8.60;;;7.65;;
21472;SDS011;10898;48.072;11.682;2023-05-20T01:04:04;7.53;;;6.82;;
21472;SDS011;10898;48.072;11.682;2023-05-20T01:06:06;8.07;;;7.28;;
21472;SDS011;10898;48.072;11.682;2023-05-20T01:08:08;7.75;;;6.95;;
21472;SDS011;10898;48.072;11.682;2023-05-20T01:10:10;9.77;;;7.83;;
21472;SDS011;10898;48.072;11.682;2023-05-20T01:12:16;7.63;;;6.90;;
21472;SDS011;10898;48.072;11.682;2023-05-20T01:14:21;7.50;;;6.72;;
21472;SDS011;10898;48.072;11.682;2023-05-20T01:16:27;8.93;;;7.50;;
21472;SDS011;10898;48.072;11.682;2023-05-20T01:18:34;7.93;;;7.13;;
21472;SDS011;10898;48.072;11.682;2023-05-20T01:20:37;9.07;;;7.68;;
21472;SDS011;10898;48.072;11.682;2023-05-20T01:22:45;9.52;;;8.00;;
21472;SDS011;10898;48.072;11.682;2023-05-20T01:24:48;8.65;;;7.70;;
21472;SDS011;10898;48.072;11.682;2023-05-20T01:26:53;8.55;;;7.70;;
21472;SDS011;10898;48.072;11.682;2023-05-20T01:28:58;10.65;;;8.65;;
21472;SDS011;10898;48.072;11.682;2023-05-20T01:31:05;9.90;;;8.05;;
21472;SDS011;10898;48.072;11.682;2023-05-20T01:33:14;10.80;;;8.63;;
21472;SDS011;10898;48.072;11.682;2023-05-20T01:35:21;8.90;;;7.60;;
21472;SDS011;10898;48.072;11.682;2023-05-20T01:37:24;9.40;;;8.50;;
21472;SDS011;10898;48.072;11.682;2023-05-20T01:39:27;10.07;;;9.07;;
21472;SDS011;10898;48.072;11.682;2023-05-20T01:41:31;9.88;;;8.88;;
21472;SDS011;10898;48.072;11.682;2023-05-20T01:43:37;10.25;;;9.23;;
21472;SDS011;10898;48.072;11.682;2023-05-20T01:45:42;9.98;;;8.98;;
21472;SDS011;10898;48.072;11.682;2023-05-20T01:47:44;9.63;;;8.60;;
21472;SDS011;10898;48.072;11.682;2023-05-20T01:49:46;11.80;;;8.80;;
21472;SDS011;10898;48.072;11.682;2023-05-20T01:51:49;12.98;;;9.45;;
21472;SDS011;10898;48.072;11.682;2023-05-20T01:53:51;10.07;;;9.10;;
21472;SDS011;10898;48.072;11.682;2023-05-20T01:55:53;10.70;;;8.27;;
21472;SDS011;10898;48.072;11.682;2023-05-20T01:57:55;8.97;;;8.07;;
21472;SDS011;10898;48.072;11.682;2023-05-20T01:59:57;11.53;;;7.97;;
21472;SDS011;10898;48.072;11.682;2023-05-20T02:01:59;9.20;;;8.27;;
21472;SDS011;10898;48.072;11.682;2023-05-20T02:04:01;10.02;;;9.00;;
21472;SDS011;10898;48.072;11.682;2023-05-20T02:06:02;10.07;;;9.03;;
21472;SDS011;10898;48.072;11.682;2023-05-20T02:08:04;10.57;;;9.25;;
21472;SDS011;10898;48.072;11.682;2023-05-20T02:10:07;11.57;;;8.90;;
21472;SDS011;10898;48.072;11.682;2023-05-20T02:12:09;10.98;;;9.60;;
21472;SDS011;10898;48.072;11.682;2023-05-20T02:14:16;9.30;;;8.40;;
21472;SDS011;10898;48.072;11.682;2023-05-20T02:16:18;10.63;;;9.63;;
21472;SDS011;10898;48.072;11.682;2023-05-20T02:18:20;13.73;;;10.13;;
21472;SDS011;10898;48.072;11.682;2023-05-20T02:20:22;13.02;;;10.90;;
21472;SDS011;10898;48.072;11.682;2023-05-20T02:22:24;11.77;;;10.57;;
21472;SDS011;10898;48.072;11.682;2023-05-20T02:24:26;14.87;;;10.63;;
21472;SDS011;10898;48.072;11.682;2023-05-20T02:26:28;12.50;;;11.02;;
21472;SDS011;10898;48.072;11.682;2023-05-20T02:28:30;11.73;;;10.52;;
21472;SDS011;10898;48.072;11.682;2023-05-20T02:30:32;12.13;;;10.83;;
21472;SDS011;10898;48.072;11.682;2023-05-20T02:32:33;12.20;;;10.30;;
21472;SDS011;10898;48.072;11.682;2023-05-20T02:34:36;11.82;;;10.63;;
21472;SDS011;10898;48.072;11.682;2023-05-20T02:36:37;16.58;;;12.07;;
21472;SDS011;10898;48.072;11.682;2023-05-20T02:38:39;13.80;;;11.63;;
21472;SDS011;10898;48.072;11.682;2023-05-20T02:40:44;14.17;;;12.67;;
21472;SDS011;10898;48.072;11.682;2023-05-20T02:42:46;15.45;;;12.60;;
21472;SDS011;10898;48.072;11.682;2023-05-20T02:44:48;15.60;;;12.13;;
21472;SDS011;10898;48.072;11.682;2023-05-20T02:46:50;19.90;;;13.48;;
21472;SDS011;10898;48.072;11.682;2023-05-20T02:48:52;16.77;;;13.00;;
21472;SDS011;10898;48.072;11.682;2023-05-20T02:50:54;14.97;;;12.90;;
21472;SDS011;10898;48.072;11.682;2023-05-20T02:52:56;17.02;;;13.55;;
21472;SDS011;10898;48.072;11.682;2023-05-20T02:54:58;15.30;;;12.57;;
21472;SDS011;10898;48.072;11.682;2023-05-20T02:57:00;15.80;;;13.05;;
21472;SDS011;10898;48.072;11.682;2023-05-20T02:59:04;16.02;;;13.07;;
21472;SDS011;10898;48.072;11.682;2023-05-20T03:01:07;15.70;;;13.35;;
21472;SDS011;10898;48.072;11.682;2023-05-20T03:03:09;17.77;;;14.05;;
21472;SDS011;10898;48.072;11.682;2023-05-20T03:05:11;15.20;;;13.60;;
21472;SDS011;10898;48.072;11.682;2023-05-20T03:07:13;20.52;;;13.27;;
21472;SDS011;10898;48.072;11.682;2023-05-20T03:09:19;15.45;;;13.60;;
21472;SDS011;10898;48.072;11.682;2023-05-20T03:11:24;17.13;;;13.55;;
21472;SDS011;10898;48.072;11.682;2023-05-20T03:13:26;17.90;;;14.60;;
21472;SDS011;10898;48.072;11.682;2023-05-20T03:15:28;15.23;;;12.57;;
21472;SDS011;10898;48.072;11.682;2023-05-20T03:17:30;17.23;;;13.73;;
21472;SDS011;10898;48.072;11.682;2023-05-20T03:19:32;15.82;;;13.45;;
21472;SDS011;10898;48.072;11.682;2023-05-20T03:21:34;17.90;;;13.93;;
21472;SDS011;10898;48.072;11.682;2023-05-20T03:23:36;16.52;;;13.68;;
21472;SDS011;10898;48.072;11.682;2023-05-20T03:25:38;16.80;;;13.90;;
21472;SDS011;10898;48.072;11.682;2023-05-20T03:27:41;17.63;;;13.80;;
21472;SDS011;10898;48.072;11.682;2023-05-20T03:29:44;15.88;;;13.88;;
21472;SDS011;10898;48.072;11.682;2023-05-20T03:31:48;17.42;;;13.93;;
21472;SDS011;10898;48.072;11.682;2023-05-20T03:33:50;18.55;;;14.40;;
21472;SDS011;10898;48.072;11.682;2023-05-20T03:35:52;19.90;;;14.97;;
21472;SDS011;10898;48.072;11.682;2023-05-20T03:37:54;19.20;;;14.68;;
21472;SDS011;10898;48.072;11.682;2023-05-20T03:39:56;20.77;;;16.48;;
21472;SDS011;10898;48.072;11.682;2023-05-20T03:41:58;19.27;;;15.38;;
21472;SDS011;10898;48.072;11.682;2023-05-20T03:44:00;21.13;;;16.05;;
21472;SDS011;10898;48.072;11.682;2023-05-20T03:46:02;23.45;;;18.98;;
21472;SDS011;10898;48.072;11.682;2023-05-20T03:48:04;21.20;;;17.87;;
21472;SDS011;10898;48.072;11.682;2023-05-20T03:50:06;23.52;;;18.67;;
21472;SDS011;10898;48.072;11.682;2023-05-20T03:52:08;22.80;;;18.25;;
21472;SDS011;10898;48.072;11.682;2023-05-20T03:54:10;29.77;;;20.65;;
21472;SDS011;10898;48.072;11.682;2023-05-20T03:56:12;30.67;;;19.50;;
21472;SDS011;10898;48.072;11.682;2023-05-20T03:58:14;28.10;;;19.33;;
21472;SDS011;10898;48.072;11.682;2023-05-20T04:00:16;28.03;;;20.03;;
21472;SDS011;10898;48.072;11.682;2023-05-20T04:02:18;24.42;;;19.50;;
21472;SDS011;10898;48.072;11.682;2023-05-20T04:04:21;28.42;;;19.65;;
21472;SDS011;10898;48.072;11.682;2023-05-20T04:06:23;30.80;;;21.05;;
21472;SDS011;10898;48.072;11.682;2023-05-20T04:08:26;30.88;;;21.77;;
21472;SDS011;10898;48.072;11.682;2023-05-20T04:10:29;31.25;;;21.70;;
21472;SDS011;10898;48.072;11.682;2023-05-20T04:12:32;29.17;;;21.20;;
21472;SDS011;10898;48.072;11.682;2023-05-20T04:14:36;30.35;;;22.33;;
21472;SDS011;10898;48.072;11.682;2023-05-20T04:16:39;31.75;;;21.75;;
21472;SDS011;10898;48.072;11.682;2023-05-20T04:18:41;32.63;;;22.95;;
21472;SDS011;10898;48.072;11.682;2023-05-20T04:20:46;31.98;;;22.73;;
21472;SDS011;10898;48.072;11.682;2023-05-20T04:22:48;31.10;;;23.30;;
21472;SDS011;10898;48.072;11.682;2023-05-20T04:24:50;33.13;;;23.85;;
21472;SDS011;10898;48.072;11.682;2023-05-20T04:26:52;37.25;;;25.60;;
21472;SDS011;10898;48.072;11.682;2023-05-20T04:28:54;35.33;;;24.55;;
21472;SDS011;10898;48.072;11.682;2023-05-20T04:30:59;30.42;;;23.42;;
21472;SDS011;10898;48.072;11.682;2023-05-20T04:33:04;31.60;;;23.80;;
21472;SDS011;10898;48.072;11.682;2023-05-20T04:35:06;36.03;;;25.23;;
21472;SDS011;10898;48.072;11.682;2023-05-20T04:37:12;31.23;;;22.73;;
21472;SDS011;10898;48.072;11.682;2023-05-20T04:39:14;35.75;;;25.00;;
21472;SDS011;10898;48.072;11.682;2023-05-20T04:41:16;33.63;;;24.08;;
21472;SDS011;10898;48.072;11.682;2023-05-20T04:43:18;33.38;;;23.25;;
21472;SDS011;10898;48.072;11.682;2023-05-20T04:45:19;31.52;;;24.17;;
21472;SDS011;10898;48.072;11.682;2023-05-20T04:47:23;32.85;;;23.63;;
21472;SDS011;10898;48.072;11.682;2023-05-20T04:49:25;31.98;;;23.23;;
21472;SDS011;10898;48.072;11.682;2023-05-20T04:51:30;31.20;;;22.00;;
21472;SDS011;10898;48.072;11.682;2023-05-20T04:53:31;32.07;;;22.87;;
21472;SDS011;10898;48.072;11.682;2023-05-20T04:55:34;36.67;;;23.50;;
21472;SDS011;10898;48.072;11.682;2023-05-20T04:57:37;31.00;;;22.10;;
21472;SDS011;10898;48.072;11.682;2023-05-20T04:59:43;30.35;;;22.77;;
21472;SDS011;10898;48.072;11.682;2023-05-20T05:01:45;28.20;;;21.70;;
21472;SDS011;10898;48.072;11.682;2023-05-20T05:03:47;31.07;;;22.37;;
21472;SDS011;10898;48.072;11.682;2023-05-20T05:05:49;34.63;;;23.17;;
21472;SDS011;10898;48.072;11.682;2023-05-20T05:07:51;31.90;;;23.30;;
21472;SDS011;10898;48.072;11.682;2023-05-20T05:09:53;32.63;;;23.70;;
21472;SDS011;10898;48.072;11.682;2023-05-20T05:11:55;26.33;;;19.67;;
21472;SDS011;10898;48.072;11.682;2023-05-20T05:13:57;31.00;;;22.40;;
21472;SDS011;10898;48.072;11.682;2023-05-20T05:15:59;29.77;;;22.07;;
21472;SDS011;10898;48.072;11.682;2023-05-20T05:18:02;31.52;;;22.90;;
21472;SDS011;10898;48.072;11.682;2023-05-20T05:20:04;30.08;;;22.88;;
21472;SDS011;10898;48.072;11.682;2023-05-20T05:22:08;33.33;;;22.73;;
21472;SDS011;10898;48.072;11.682;2023-05-20T05:24:10;31.63;;;22.13;;
21472;SDS011;10898;48.072;11.682;2023-05-20T05:26:12;31.52;;;22.15;;
21472;SDS011;10898;48.072;11.682;2023-05-20T05:28:14;33.70;;;22.65;;
21472;SDS011;10898;48.072;11.682;2023-05-20T05:30:16;34.80;;;24.50;;
21472;SDS011;10898;48.072;11.682;2023-05-20T05:32:18;40.33;;;25.42;;
21472;SDS011;10898;48.072;11.682;2023-05-20T05:34:20;36.72;;;25.48;;
21472;SDS011;10898;48.072;11.682;2023-05-20T05:36:22;35.77;;;25.33;;
21472;SDS011;10898;48.072;11.682;2023-05-20T05:38:26;36.55;;;24.65;;
21472;SDS011;10898;48.072;11.682;2023-05-20T05:40:27;36.37;;;23.77;;
21472;SDS011;10898;48.072;11.682;2023-05-20T05:42:29;34.37;;;24.47;;
21472;SDS011;10898;48.072;11.682;2023-05-20T05:44:31;33.20;;;24.13;;
21472;SDS011;10898;48.072;11.682;2023-05-20T05:46:33;32.67;;;24.35;;
21472;SDS011;10898;48.072;11.682;2023-05-20T05:48:35;33.03;;;23.47;;
21472;SDS011;10898;48.072;11.682;2023-05-20T05:50:37;31.75;;;23.67;;
21472;SDS011;10898;48.072;11.682;2023-05-20T05:52:39;31.63;;;23.40;;
21472;SDS011;10898;48.072;11.682;2023-05-20T05:54:41;37.40;;;24.77;;
21472;SDS011;10898;48.072;11.682;2023-05-20T05:56:43;33.33;;;23.33;;
21472;SDS011;10898;48.072;11.682;2023-05-20T05:58:45;33.10;;;24.23;;
21472;SDS011;10898;48.072;11.682;2023-05-20T06:00:51;28.40;;;23.23;;
21472;SDS011;10898;48.072;11.682;2023-05-20T06:02:54;30.33;;;22.20;;
21472;SDS011;10898;48.072;11.682;2023-05-20T06:04:57;26.88;;;20.45;;
21472;SDS011;10898;48.072;11.682;2023-05-20T06:06:58;25.07;;;19.57;;
21472;SDS011;10898;48.072;11.682;2023-05-20T06:09:00;24.35;;;19.00;;
21472;SDS011;10898;48.072;11.682;2023-05-20T06:11:02;22.17;;;17.97;;
21472;SDS011;10898;48.072;11.682;2023-05-20T06:13:04;22.33;;;17.40;;
21472;SDS011;10898;48.072;11.682;2023-05-20T06:15:06;21.47;;;18.40;;
21472;SDS011;10898;48.072;11.682;2023-05-20T06:17:08;26.75;;;18.75;;
21472;SDS011;10898;48.072;11.682;2023-05-20T06:19:10;22.48;;;17.33;;
21472;SDS011;10898;48.072;11.682;2023-05-20T06:21:12;21.80;;;18.73;;
21472;SDS011;10898;48.072;11.682;2023-05-20T06:23:14;21.27;;;17.42;;
21472;SDS011;10898;48.072;11.682;2023-05-20T06:25:16;19.13;;;16.97;;
21472;SDS011;10898;48.072;11.682;2023-05-20T06:27:18;20.13;;;17.70;;
21472;SDS011;10898;48.072;11.682;2023-05-20T06:29:19;21.43;;;17.77;;
21472;SDS011;10898;48.072;11.682;2023-05-20T06:31:21;21.10;;;18.80;;
21472;SDS011;10898;48.072;11.682;2023-05-20T06:33:24;20.38;;;17.70;;
21472;SDS011;10898;48.072;11.682;2023-05-20T06:35:27;24.25;;;18.83;;
21472;SDS011;10898;48.072;11.682;2023-05-20T06:37:29;22.65;;;19.52;;
21472;SDS011;10898;48.072;11.682;2023-05-20T06:39:31;21.95;;;19.20;;
21472;SDS011;10898;48.072;11.682;2023-05-20T06:41:33;20.95;;;17.10;;
21472;SDS011;10898;48.072;11.682;2023-05-20T06:43:35;23.95;;;19.08;;
21472;SDS011;10898;48.072;11.682;2023-05-20T06:45:36;23.23;;;19.33;;
21472;SDS011;10898;48.072;11.682;2023-05-20T06:47:38;20.97;;;18.50;;
21472;SDS011;10898;48.072;11.682;2023-05-20T06:49:41;24.90;;;19.03;;
21472;SDS011;10898;48.072;11.682;2023-05-20T06:51:47;22.63;;;17.67;;
21472;SDS011;10898;48.072;11.682;2023-05-20T06:53:49;20.15;;;17.65;;
21472;SDS011;10898;48.072;11.682;2023-05-20T06:55:54;23.30;;;18.17;;
21472;SDS011;10898;48.072;11.682;2023-05-20T06:57:56;22.63;;;18.92;;
21472;SDS011;10898;48.072;11.682;2023-05-20T06:59:58;22.02;;;18.30;;
21472;SDS011;10898;48.072;11.682;2023-05-20T07:01:59;22.55;;;17.75;;
21472;SDS011;10898;48.072;11.682;2023-05-20T07:04:02;22.73;;;18.23;;
21472;SDS011;10898;48.072;11.682;2023-05-20T07:06:04;24.85;;;18.52;;
21472;SDS011;10898;48.072;11.682;2023-05-20T07:08:06;23.35;;;18.70;;
21472;SDS011;10898;48.072;11.682;2023-05-20T07:10:08;22.55;;;18.67;;
21472;SDS011;10898;48.072;11.682;2023-05-20T07:12:10;25.60;;;20.47;;
21472;SDS011;10898;48.072;11.682;2023-05-20T07:14:12;26.27;;;19.53;;
21472;SDS011;10898;48.072;11.682;2023-05-20T07:16:14;25.00;;;20.13;;
21472;SDS011;10898;48.072;11.682;2023-05-20T07:18:16;25.47;;;19.40;;
21472;SDS011;10898;48.072;11.682;2023-05-20T07:20:17;23.40;;;18.90;;
21472;SDS011;10898;48.072;11.682;2023-05-20T07:22:19;25.83;;;20.00;;
21472;SDS011;10898;48.072;11.682;2023-05-20T07:24:21;31.30;;;20.60;;
21472;SDS011;10898;48.072;11.682;2023-05-20T07:26:23;21.37;;;19.07;;
21472;SDS011;10898;48.072;11.682;2023-05-20T07:28:25;22.40;;;18.13;;
21472;SDS011;10898;48.072;11.682;2023-05-20T07:30:27;25.77;;;19.63;;
21472;SDS011;10898;48.072;11.682;2023-05-20T07:32:29;21.17;;;17.27;;
21472;SDS011;10898;48.072;11.682;2023-05-20T07:34:31;21.83;;;18.40;;
21472;SDS011;10898;48.072;11.682;2023-05-20T07:36:33;20.13;;;17.07;;
21472;SDS011;10898;48.072;11.682;2023-05-20T07:38:35;20.33;;;17.00;;
21472;SDS011;10898;48.072;11.682;2023-05-20T07:40:39;21.50;;;17.40;;
21472;SDS011;10898;48.072;11.682;2023-05-20T07:42:42;20.05;;;16.63;;
21472;SDS011;10898;48.072;11.682;2023-05-20T07:44:44;20.13;;;16.37;;
21472;SDS011;10898;48.072;11.682;2023-05-20T07:46:46;19.30;;;15.67;;
21472;SDS011;10898;48.072;11.682;2023-05-20T07:48:48;17.60;;;15.05;;
21472;SDS011;10898;48.072;11.682;2023-05-20T07:50:50;19.88;;;16.38;;
21472;SDS011;10898;48.072;11.682;2023-05-20T07:52:52;17.63;;;15.75;;
21472;SDS011;10898;48.072;11.682;2023-05-20T07:54:57;19.30;;;16.73;;
21472;SDS011;10898;48.072;11.682;2023-05-20T07:56:58;18.97;;;16.40;;
21472;SDS011;10898;48.072;11.682;2023-05-20T07:59:01;20.08;;;15.55;;
21472;SDS011;10898;48.072;11.682;2023-05-20T08:01:03;17.63;;;15.80;;
21472;SDS011;10898;48.072;11.682;2023-05-20T08:03:05;18.93;;;15.90;;
21472;SDS011;10898;48.072;11.682;2023-05-20T08:05:08;16.70;;;14.90;;
21472;SDS011;10898;48.072;11.682;2023-05-20T08:07:10;16.70;;;14.68;;
21472;SDS011;10898;48.072;11.682;2023-05-20T08:09:12;17.50;;;14.83;;
21472;SDS011;10898;48.072;11.682;2023-05-20T08:11:14;16.85;;;15.15;;
21472;SDS011;10898;48.072;11.682;2023-05-20T08:13:16;16.58;;;14.27;;
21472;SDS011;10898;48.072;11.682;2023-05-20T08:15:18;16.00;;;14.27;;
21472;SDS011;10898;48.072;11.682;2023-05-20T08:17:20;15.83;;;13.83;;
21472;SDS011;10898;48.072;11.682;2023-05-20T08:19:22;15.63;;;14.00;;
21472;SDS011;10898;48.072;11.682;2023-05-20T08:21:24;15.68;;;14.02;;
21472;SDS011;10898;48.072;11.682;2023-05-20T08:23:26;15.60;;;14.00;;
21472;SDS011;10898;48.072;11.682;2023-05-20T08:25:28;15.03;;;13.57;;
21472;SDS011;10898;48.072;11.682;2023-05-20T08:29:32;14.38;;;12.85;;
21472;SDS011;10898;48.072;11.682;2023-05-20T08:31:34;14.60;;;13.20;;
21472;SDS011;10898;48.072;11.682;2023-05-20T08:33:36;12.98;;;11.30;;
21472;SDS011;10898;48.072;11.682;2023-05-20T08:35:38;15.25;;;12.93;;
21472;SDS011;10898;48.072;11.682;2023-05-20T08:37:40;14.38;;;12.88;;
21472;SDS011;10898;48.072;11.682;2023-05-20T08:39:42;13.97;;;12.40;;
21472;SDS011;10898;48.072;11.682;2023-05-20T08:41:46;12.55;;;11.35;;
21472;SDS011;10898;48.072;11.682;2023-05-20T08:43:48;12.23;;;11.02;;
21472;SDS011;10898;48.072;11.682;2023-05-20T08:45:52;12.48;;;11.18;;
21472;SDS011;10898;48.072;11.682;2023-05-20T08:49:58;13.63;;;11.38;;
21472;SDS011;10898;48.072;11.682;2023-05-20T08:52:00;12.50;;;9.97;;
21472;SDS011;10898;48.072;11.682;2023-05-20T08:54:02;9.73;;;8.83;;
21472;SDS011;10898;48.072;11.682;2023-05-20T08:56:04;10.15;;;9.15;;
21472;SDS011;10898;48.072;11.682;2023-05-20T08:58:06;10.68;;;9.27;;
21472;SDS011;10898;48.072;11.682;2023-05-20T09:00:08;10.95;;;9.10;;
21472;SDS011;10898;48.072;11.682;2023-05-20T09:02:13;9.20;;;8.40;;
21472;SDS011;10898;48.072;11.682;2023-05-20T09:04:16;10.13;;;8.00;;
21472;SDS011;10898;48.072;11.682;2023-05-20T09:06:18;8.68;;;7.88;;
21472;SDS011;10898;48.072;11.682;2023-05-20T09:08:23;9.27;;;8.33;;
21472;SDS011;10898;48.072;11.682;2023-05-20T09:10:28;10.90;;;8.50;;
21472;SDS011;10898;48.072;11.682;2023-05-20T09:12:30;9.88;;;7.70;;
21472;SDS011;10898;48.072;11.682;2023-05-20T09:14:32;6.85;;;6.20;;
21472;SDS011;10898;48.072;11.682;2023-05-20T09:16:34;7.73;;;6.63;;
21472;SDS011;10898;48.072;11.682;2023-05-20T09:18:39;7.05;;;6.10;;
21472;SDS011;10898;48.072;11.682;2023-05-20T09:20:41;6.97;;;6.07;;
21472;SDS011;10898;48.072;11.682;2023-05-20T09:22:49;7.72;;;6.93;;
21472;SDS011;10898;48.072;11.682;2023-05-20T09:24:53;7.53;;;6.72;;
21472;SDS011;10898;48.072;11.682;2023-05-20T09:26:56;7.13;;;6.22;;
21472;SDS011;10898;48.072;11.682;2023-05-20T09:28:58;9.05;;;5.95;;
21472;SDS011;10898;48.072;11.682;2023-05-20T09:31:00;6.40;;;5.80;;
21472;SDS011;10898;48.072;11.682;2023-05-20T09:33:03;6.05;;;5.55;;
21472;SDS011;10898;48.072;11.682;2023-05-20T09:35:06;6.65;;;5.97;;
21472;SDS011;10898;48.072;11.682;2023-05-20T09:37:08;6.63;;;5.93;;
21472;SDS011;10898;48.072;11.682;2023-05-20T09:41:15;5.68;;;5.00;;
21472;SDS011;10898;48.072;11.682;2023-05-20T09:43:17;5.05;;;4.60;;
21472;SDS011;10898;48.072;11.682;2023-05-20T09:45:19;5.15;;;4.70;;
21472;SDS011;10898;48.072;11.682;2023-05-20T09:47:24;5.68;;;5.18;;
21472;SDS011;10898;48.072;11.682;2023-05-20T09:49:28;5.20;;;4.80;;
21472;SDS011;10898;48.072;11.682;2023-05-20T09:51:32;5.68;;;5.00;;
21472;SDS011;10898;48.072;11.682;2023-05-20T09:53:34;7.38;;;5.22;;
21472;SDS011;10898;48.072;11.682;2023-05-20T09:55:36;6.75;;;5.00;;
21472;SDS011;10898;48.072;11.682;2023-05-20T09:57:39;6.30;;;5.00;;
21472;SDS011;10898;48.072;11.682;2023-05-20T09:59:40;6.93;;;5.17;;
21472;SDS011;10898;48.072;11.682;2023-05-20T10:01:43;4.53;;;4.13;;
21472;SDS011;10898;48.072;11.682;2023-05-20T10:03:46;4.68;;;4.25;;
21472;SDS011;10898;48.072;11.682;2023-05-20T10:08:11;4.20;;;3.80;;
21472;SDS011;10898;48.072;11.682;2023-05-20T10:17:16;5.93;;;4.80;;
21472;SDS011;10898;48.072;11.682;2023-05-20T10:19:27;4.55;;;4.10;;
21472;SDS011;10898;48.072;11.682;2023-05-20T10:21:32;8.70;;;5.30;;
21472;SDS011;10898;48.072;11.682;2023-05-20T10:23:34;5.38;;;3.88;;
21472;SDS011;10898;48.072;11.682;2023-05-20T10:25:36;5.30;;;4.15;;
21472;SDS011;10898;48.072;11.682;2023-05-20T10:27:45;4.73;;;4.27;;
21472;SDS011;10898;48.072;11.682;2023-05-20T10:29:51;4.30;;;4.00;;
21472;SDS011;10898;48.072;11.682;2023-05-20T10:31:55;8.63;;;6.38;;
21472;SDS011;10898;48.072;11.682;2023-05-20T10:33:57;7.38;;;4.57;;
21472;SDS011;10898;48.072;11.682;2023-05-20T10:35:59;4.45;;;3.90;;
21472;SDS011;10898;48.072;11.682;2023-05-20T10:38:09;4.65;;;3.90;;
21472;SDS011;10898;48.072;11.682;2023-05-20T10:40:12;4.07;;;3.78;;
21472;SDS011;10898;48.072;11.682;2023-05-20T10:42:16;4.80;;;4.30;;
21472;SDS011;10898;48.072;11.682;2023-05-20T10:44:39;4.68;;;4.28;;
21472;SDS011;10898;48.072;11.682;2023-05-20T10:46:43;9.48;;;5.47;;
21472;SDS011;10898;48.072;11.682;2023-05-20T10:49:15;7.40;;;4.43;;
21472;SDS011;10898;48.072;11.682;2023-05-20T10:51:20;5.72;;;4.35;;
21472;SDS011;10898;48.072;11.682;2023-05-20T10:53:22;4.43;;;4.03;;
21472;SDS011;10898;48.072;11.682;2023-05-20T10:55:35;4.78;;;4.35;;
21472;SDS011;10898;48.072;11.682;2023-05-20T10:57:38;5.70;;;4.18;;
21472;SDS011;10898;48.072;11.682;2023-05-20T10:59:41;4.20;;;3.90;;
21472;SDS011;10898;48.072;11.682;2023-05-20T11:01:43;5.22;;;4.25;;
21472;SDS011;10898;48.072;11.682;2023-05-20T11:03:47;4.10;;;3.80;;
21472;SDS011;10898;48.072;11.682;2023-05-20T11:05:50;6.70;;;5.20;;
21472;SDS011;10898;48.072;11.682;2023-05-20T11:07:59;5.13;;;4.43;;
21472;SDS011;10898;48.072;11.682;2023-05-20T11:10:24;4.00;;;3.70;;
21472;SDS011;10898;48.072;11.682;2023-05-20T11:12:26;4.10;;;3.70;;
21472;SDS011;10898;48.072;11.682;2023-05-20T11:14:28;5.18;;;3.55;;
21472;SDS011;10898;48.072;11.682;2023-05-20T11:16:31;3.85;;;3.47;;
21472;SDS011;10898;48.072;11.682;2023-05-20T11:18:33;4.15;;;3.33;;
21472;SDS011;10898;48.072;11.682;2023-05-20T11:20:35;3.83;;;3.53;;
21472;SDS011;10898;48.072;11.682;2023-05-20T11:22:38;3.55;;;3.28;;
21472;SDS011;10898;48.072;11.682;2023-05-20T11:24:47;3.47;;;2.90;;
21472;SDS011;10898;48.072;11.682;2023-05-20T11:26:49;8.10;;;3.47;;
21472;SDS011;10898;48.072;11.682;2023-05-20T11:28:51;3.50;;;3.20;;
21472;SDS011;10898;48.072;11.682;2023-05-20T11:30:53;3.58;;;3.05;;
21472;SDS011;10898;48.072;11.682;2023-05-20T11:32:56;4.65;;;3.10;;
21472;SDS011;10898;48.072;11.682;2023-05-20T11:34:59;3.83;;;3.45;;
21472;SDS011;10898;48.072;11.682;2023-05-20T11:37:02;2.90;;;2.60;;
21472;SDS011;10898;48.072;11.682;2023-05-20T11:39:11;3.70;;;2.80;;
21472;SDS011;10898;48.072;11.682;2023-05-20T11:41:15;3.35;;;3.08;;
21472;SDS011;10898;48.072;11.682;2023-05-20T11:43:17;6.37;;;3.30;;
21472;SDS011;10898;48.072;11.682;2023-05-20T11:47:24;4.07;;;3.50;;
21472;SDS011;10898;48.072;11.682;2023-05-20T11:49:28;3.28;;;2.97;;
21472;SDS011;10898;48.072;11.682;2023-05-20T11:51:31;9.82;;;3.40;;
21472;SDS011;10898;48.072;11.682;2023-05-20T11:53:33;3.00;;;2.70;;
21472;SDS011;10898;48.072;11.682;2023-05-20T11:57:56;3.38;;;3.08;;
21472;SDS011;10898;48.072;11.682;2023-05-20T11:59:58;4.47;;;2.85;;
21472;SDS011;10898;48.072;11.682;2023-05-20T12:04:03;4.43;;;3.50;;
21472;SDS011;10898;48.072;11.682;2023-05-20T12:06:06;3.30;;;3.00;;
21472;SDS011;10898;48.072;11.682;2023-05-20T12:08:07;5.60;;;3.00;;
21472;SDS011;10898;48.072;11.682;2023-05-20T12:10:10;3.50;;;3.20;;
21472;SDS011;10898;48.072;11.682;2023-05-20T12:12:13;3.28;;;2.97;;
21472;SDS011;10898;48.072;11.682;2023-05-20T12:14:16;5.25;;;3.03;;
21472;SDS011;10898;48.072;11.682;2023-05-20T12:16:18;3.58;;;3.28;;
21472;SDS011;10898;48.072;11.682;2023-05-20T12:18:20;3.63;;;3.20;;